sensor_id;sensor_type;location;lat;lon;timestamp;P1;durP1;ratioP1;P2;durP2;ratioP2
22549;SDS011;11441;57.164;-2.120;2023-03-21T00:00:57;16.13;;;8.18;;
22549;SDS011;11441;57.164;-2.120;2023-03-21T00:06:12;16.95;;;8.43;;
22549;SDS011;11441;57.164;-2.120;2023-03-21T00:08:40;15.07;;;8.80;;
22549;SDS011;11441;57.164;-2.120;2023-03-21T00:11:09;12.90;;;9.05;;
22549;SDS011;11441;57.164;-2.120;2023-03-21T00:13:37;13.23;;;7.78;;
22549;SDS011;11441;57.164;-2.120;2023-03-21T00:16:09;15.65;;;8.43;;
22549;SDS011;11441;57.164;-2.120;2023-03-21T00:19:02;18.55;;;9.00;;
22549;SDS011;11441;57.164;-2.120;2023-03-21T00:21:31;14.98;;;8.63;;
22549;SDS011;11441;57.164;-2.120;2023-03-21T00:24:18;15.20;;;8.10;;
22549;SDS011;11441;57.164;-2.120;2023-03-21T00:26:46;15.80;;;9.43;;
22549;SDS011;11441;57.164;-2.120;2023-03-21T00:29:13;18.15;;;10.02;;
22549;SDS011;11441;57.164;-2.120;2023-03-21T00:31:39;18.08;;;9.38;;
22549;SDS011;11441;57.164;-2.120;2023-03-21T00:34:06;19.20;;;9.43;;
22549;SDS011;11441;57.164;-2.120;2023-03-21T00:36:33;16.35;;;8.90;;
22549;SDS011;11441;57.164;-2.120;2023-03-21T00:39:00;16.20;;;8.85;;
22549;SDS011;11441;57.164;-2.120;2023-03-21T00:41:27;13.45;;;8.57;;
22549;SDS011;11441;57.164;-2.120;2023-03-21T00:44:07;19.77;;;9.55;;
22549;SDS011;11441;57.164;-2.120;2023-03-21T00:46:34;18.17;;;9.15;;
22549;SDS011;11441;57.164;-2.120;2023-03-21T00:49:17;19.55;;;9.15;;
22549;SDS011;11441;57.164;-2.120;2023-03-21T00:51:46;20.55;;;10.00;;
22549;SDS011;11441;57.164;-2.120;2023-03-21T00:54:16;17.58;;;9.77;;
22549;SDS011;11441;57.164;-2.120;2023-03-21T00:56:43;14.40;;;9.70;;
22549;SDS011;11441;57.164;-2.120;2023-03-21T01:01:56;21.27;;;9.95;;
22549;SDS011;11441;57.164;-2.120;2023-03-21T01:04:44;16.08;;;10.02;;
22549;SDS011;11441;57.164;-2.120;2023-03-21T01:07:10;17.23;;;9.60;;
22549;SDS011;11441;57.164;-2.120;2023-03-21T01:09:37;15.68;;;9.57;;
22549;SDS011;11441;57.164;-2.120;2023-03-21T01:12:04;13.73;;;8.85;;
22549;SDS011;11441;57.164;-2.120;2023-03-21T01:14:31;13.23;;;8.18;;
22549;SDS011;11441;57.164;-2.120;2023-03-21T01:16:58;14.20;;;7.95;;
22549;SDS011;11441;57.164;-2.120;2023-03-21T01:19:24;14.85;;;9.13;;
22549;SDS011;11441;57.164;-2.120;2023-03-21T01:22:14;20.83;;;9.95;;
22549;SDS011;11441;57.164;-2.120;2023-03-21T01:24:41;12.25;;;9.43;;
22549;SDS011;11441;57.164;-2.120;2023-03-21T01:27:20;14.75;;;8.02;;
22549;SDS011;11441;57.164;-2.120;2023-03-21T01:29:48;12.95;;;8.57;;
22549;SDS011;11441;57.164;-2.120;2023-03-21T01:32:14;13.10;;;8.45;;
22549;SDS011;11441;57.164;-2.120;2023-03-21T01:34:42;14.52;;;8.00;;
22549;SDS011;11441;57.164;-2.120;2023-03-21T01:37:09;10.25;;;6.82;;
22549;SDS011;11441;57.164;-2.120;2023-03-21T01:39:42;10.35;;;7.15;;
22549;SDS011;11441;57.164;-2.120;2023-03-21T01:42:11;18.35;;;9.20;;
22549;SDS011;11441;57.164;-2.120;2023-03-21T01:47:54;13.02;;;8.05;;
22549;SDS011;11441;57.164;-2.120;2023-03-21T01:50:24;13.68;;;7.63;;
22549;SDS011;11441;57.164;-2.120;2023-03-21T01:53:12;12.40;;;8.63;;
22549;SDS011;11441;57.164;-2.120;2023-03-21T01:55:41;7.50;;;5.68;;
22549;SDS011;11441;57.164;-2.120;2023-03-21T01:58:26;12.40;;;7.00;;
22549;SDS011;11441;57.164;-2.120;2023-03-21T02:01:03;10.02;;;7.20;;
22549;SDS011;11441;57.164;-2.120;2023-03-21T02:03:50;12.10;;;8.13;;
22549;SDS011;11441;57.164;-2.120;2023-03-21T02:06:27;11.23;;;6.75;;
22549;SDS011;11441;57.164;-2.120;2023-03-21T02:09:06;11.27;;;6.70;;
22549;SDS011;11441;57.164;-2.120;2023-03-21T02:11:37;14.00;;;7.65;;
22549;SDS011;11441;57.164;-2.120;2023-03-21T02:14:05;7.80;;;6.28;;
22549;SDS011;11441;57.164;-2.120;2023-03-21T02:35:18;10.18;;;6.13;;
22549;SDS011;11441;57.164;-2.120;2023-03-21T02:38:09;16.25;;;7.55;;
22549;SDS011;11441;57.164;-2.120;2023-03-21T02:40:39;12.32;;;6.10;;
22549;SDS011;11441;57.164;-2.120;2023-03-21T02:52:06;16.80;;;6.68;;
22549;SDS011;11441;57.164;-2.120;2023-03-21T02:54:49;11.32;;;6.32;;
22549;SDS011;11441;57.164;-2.120;2023-03-21T02:57:22;11.82;;;6.22;;
22549;SDS011;11441;57.164;-2.120;2023-03-21T02:59:57;12.60;;;5.55;;
22549;SDS011;11441;57.164;-2.120;2023-03-21T03:02:41;12.07;;;4.43;;
22549;SDS011;11441;57.164;-2.120;2023-03-21T03:05:12;7.95;;;4.78;;
22549;SDS011;11441;57.164;-2.120;2023-03-21T03:10:28;7.35;;;4.38;;
22549;SDS011;11441;57.164;-2.120;2023-03-21T03:29:14;6.55;;;3.63;;
22549;SDS011;11441;57.164;-2.120;2023-03-21T03:31:45;6.75;;;3.83;;
22549;SDS011;11441;57.164;-2.120;2023-03-21T03:34:20;6.78;;;3.63;;
22549;SDS011;11441;57.164;-2.120;2023-03-21T03:36:54;6.70;;;3.10;;
22549;SDS011;11441;57.164;-2.120;2023-03-21T03:39:26;6.30;;;2.55;;
22549;SDS011;11441;57.164;-2.120;2023-03-21T03:42:00;5.47;;;2.70;;
22549;SDS011;11441;57.164;-2.120;2023-03-21T03:44:55;4.63;;;2.47;;
22549;SDS011;11441;57.164;-2.120;2023-03-21T03:56:02;4.82;;;1.52;;
22549;SDS011;11441;57.164;-2.120;2023-03-21T03:58:34;5.00;;;1.40;;
22549;SDS011;11441;57.164;-2.120;2023-03-21T04:01:13;1.77;;;1.10;;
22549;SDS011;11441;57.164;-2.120;2023-03-21T04:03:41;3.50;;;1.00;;
22549;SDS011;11441;57.164;-2.120;2023-03-21T04:06:20;2.58;;;1.45;;
22549;SDS011;11441;57.164;-2.120;2023-03-21T04:08:49;1.95;;;1.13;;
22549;SDS011;11441;57.164;-2.120;2023-03-21T04:11:17;2.28;;;1.60;;
22549;SDS011;11441;57.164;-2.120;2023-03-21T04:13:48;7.68;;;1.92;;
22549;SDS011;11441;57.164;-2.120;2023-03-21T04:16:20;4.07;;;2.08;;
22549;SDS011;11441;57.164;-2.120;2023-03-21T04:18:48;4.43;;;2.58;;
22549;SDS011;11441;57.164;-2.120;2023-03-21T04:21:17;5.45;;;2.08;;
22549;SDS011;11441;57.164;-2.120;2023-03-21T04:23:44;8.50;;;2.72;;
22549;SDS011;11441;57.164;-2.120;2023-03-21T04:26:10;10.93;;;3.22;;
22549;SDS011;11441;57.164;-2.120;2023-03-21T04:28:43;8.85;;;3.28;;
22549;SDS011;11441;57.164;-2.120;2023-03-21T04:31:39;8.35;;;3.35;;
22549;SDS011;11441;57.164;-2.120;2023-03-21T04:34:11;9.25;;;3.60;;
22549;SDS011;11441;57.164;-2.120;2023-03-21T04:37:00;11.60;;;4.20;;
22549;SDS011;11441;57.164;-2.120;2023-03-21T04:42:13;10.00;;;4.70;;
22549;SDS011;11441;57.164;-2.120;2023-03-21T04:44:41;12.48;;;4.43;;
22549;SDS011;11441;57.164;-2.120;2023-03-21T04:47:08;8.60;;;5.00;;
22549;SDS011;11441;57.164;-2.120;2023-03-21T04:49:35;11.38;;;4.15;;
22549;SDS011;11441;57.164;-2.120;2023-03-21T04:52:02;13.80;;;5.13;;
22549;SDS011;11441;57.164;-2.120;2023-03-21T04:54:29;7.80;;;4.47;;
22549;SDS011;11441;57.164;-2.120;2023-03-21T04:56:57;13.88;;;5.53;;
22549;SDS011;11441;57.164;-2.120;2023-03-21T04:59:26;9.38;;;5.30;;
22549;SDS011;11441;57.164;-2.120;2023-03-21T05:01:53;12.40;;;5.40;;
22549;SDS011;11441;57.164;-2.120;2023-03-21T05:04:22;13.68;;;5.40;;
22549;SDS011;11441;57.164;-2.120;2023-03-21T05:06:49;13.48;;;6.25;;
22549;SDS011;11441;57.164;-2.120;2023-03-21T05:09:16;8.77;;;4.40;;
22549;SDS011;11441;57.164;-2.120;2023-03-21T05:12:01;9.57;;;5.57;;
22549;SDS011;11441;57.164;-2.120;2023-03-21T05:14:30;19.20;;;5.72;;
22549;SDS011;11441;57.164;-2.120;2023-03-21T05:16:58;12.13;;;5.15;;
22549;SDS011;11441;57.164;-2.120;2023-03-21T05:19:44;9.07;;;4.75;;
22549;SDS011;11441;57.164;-2.120;2023-03-21T05:22:11;12.15;;;5.68;;
22549;SDS011;11441;57.164;-2.120;2023-03-21T05:24:40;10.93;;;5.05;;
22549;SDS011;11441;57.164;-2.120;2023-03-21T05:27:13;12.10;;;4.93;;
22549;SDS011;11441;57.164;-2.120;2023-03-21T05:29:51;7.35;;;5.15;;
22549;SDS011;11441;57.164;-2.120;2023-03-21T05:32:18;4.57;;;3.67;;
22549;SDS011;11441;57.164;-2.120;2023-03-21T05:34:45;6.68;;;4.97;;
22549;SDS011;11441;57.164;-2.120;2023-03-21T05:37:12;13.95;;;5.38;;
22549;SDS011;11441;57.164;-2.120;2023-03-21T05:39:57;6.90;;;4.95;;
22549;SDS011;11441;57.164;-2.120;2023-03-21T05:42:29;9.45;;;5.47;;
22549;SDS011;11441;57.164;-2.120;2023-03-21T05:45:14;8.60;;;5.32;;
22549;SDS011;11441;57.164;-2.120;2023-03-21T05:50:32;9.20;;;5.45;;
22549;SDS011;11441;57.164;-2.120;2023-03-21T05:53:09;9.07;;;5.15;;
22549;SDS011;11441;57.164;-2.120;2023-03-21T05:55:36;9.07;;;5.47;;
22549;SDS011;11441;57.164;-2.120;2023-03-21T05:58:07;10.25;;;4.95;;
22549;SDS011;11441;57.164;-2.120;2023-03-21T06:00:35;9.93;;;5.60;;
22549;SDS011;11441;57.164;-2.120;2023-03-21T06:03:24;11.23;;;5.60;;
22549;SDS011;11441;57.164;-2.120;2023-03-21T06:06:17;11.35;;;6.18;;
22549;SDS011;11441;57.164;-2.120;2023-03-21T06:08:55;8.68;;;4.68;;
22549;SDS011;11441;57.164;-2.120;2023-03-21T06:11:42;9.00;;;4.85;;
22549;SDS011;11441;57.164;-2.120;2023-03-21T06:14:30;9.32;;;4.93;;
22549;SDS011;11441;57.164;-2.120;2023-03-21T06:17:11;7.88;;;4.28;;
22549;SDS011;11441;57.164;-2.120;2023-03-21T06:19:52;10.95;;;4.72;;
22549;SDS011;11441;57.164;-2.120;2023-03-21T06:22:24;10.23;;;4.55;;
22549;SDS011;11441;57.164;-2.120;2023-03-21T06:24:51;10.80;;;3.95;;
22549;SDS011;11441;57.164;-2.120;2023-03-21T06:27:18;9.60;;;3.90;;
22549;SDS011;11441;57.164;-2.120;2023-03-21T06:29:53;11.20;;;4.93;;
22549;SDS011;11441;57.164;-2.120;2023-03-21T06:32:21;9.35;;;3.33;;
22549;SDS011;11441;57.164;-2.120;2023-03-21T06:35:06;10.70;;;3.88;;
22549;SDS011;11441;57.164;-2.120;2023-03-21T06:37:35;6.88;;;3.45;;
22549;SDS011;11441;57.164;-2.120;2023-03-21T06:40:02;7.72;;;3.75;;
22549;SDS011;11441;57.164;-2.120;2023-03-21T06:42:30;7.90;;;3.80;;
22549;SDS011;11441;57.164;-2.120;2023-03-21T06:45:05;9.40;;;3.95;;
22549;SDS011;11441;57.164;-2.120;2023-03-21T06:47:32;8.93;;;3.08;;
22549;SDS011;11441;57.164;-2.120;2023-03-21T06:50:03;10.68;;;4.10;;
22549;SDS011;11441;57.164;-2.120;2023-03-21T06:52:38;5.32;;;2.55;;
22549;SDS011;11441;57.164;-2.120;2023-03-21T06:55:05;7.85;;;3.47;;
22549;SDS011;11441;57.164;-2.120;2023-03-21T06:57:32;7.20;;;3.20;;
22549;SDS011;11441;57.164;-2.120;2023-03-21T06:59:59;6.55;;;3.20;;
22549;SDS011;11441;57.164;-2.120;2023-03-21T07:02:27;6.80;;;3.13;;
22549;SDS011;11441;57.164;-2.120;2023-03-21T07:05:15;6.03;;;2.55;;
22549;SDS011;11441;57.164;-2.120;2023-03-21T07:07:43;7.20;;;2.65;;
22549;SDS011;11441;57.164;-2.120;2023-03-21T07:10:10;8.38;;;3.20;;
22549;SDS011;11441;57.164;-2.120;2023-03-21T07:12:45;10.68;;;3.05;;
22549;SDS011;11441;57.164;-2.120;2023-03-21T07:15:33;5.90;;;2.38;;
22549;SDS011;11441;57.164;-2.120;2023-03-21T07:18:04;5.53;;;2.72;;
22549;SDS011;11441;57.164;-2.120;2023-03-21T07:20:32;5.65;;;2.75;;
22549;SDS011;11441;57.164;-2.120;2023-03-21T07:22:59;6.20;;;2.47;;
22549;SDS011;11441;57.164;-2.120;2023-03-21T07:25:26;5.13;;;2.45;;
22549;SDS011;11441;57.164;-2.120;2023-03-21T07:27:55;6.85;;;2.80;;
22549;SDS011;11441;57.164;-2.120;2023-03-21T07:30:22;2.55;;;1.73;;
22549;SDS011;11441;57.164;-2.120;2023-03-21T07:32:49;7.90;;;2.33;;
22549;SDS011;11441;57.164;-2.120;2023-03-21T07:35:16;2.38;;;1.83;;
22549;SDS011;11441;57.164;-2.120;2023-03-21T07:37:43;5.43;;;2.10;;
22549;SDS011;11441;57.164;-2.120;2023-03-21T07:40:14;3.30;;;1.90;;
22549;SDS011;11441;57.164;-2.120;2023-03-21T07:42:41;5.43;;;1.75;;
22549;SDS011;11441;57.164;-2.120;2023-03-21T07:45:10;3.40;;;1.63;;
22549;SDS011;11441;57.164;-2.120;2023-03-21T07:47:43;2.85;;;1.80;;
22549;SDS011;11441;57.164;-2.120;2023-03-21T07:50:10;3.97;;;1.70;;
22549;SDS011;11441;57.164;-2.120;2023-03-21T07:52:38;4.95;;;1.83;;
22549;SDS011;11441;57.164;-2.120;2023-03-21T07:55:05;8.05;;;2.10;;
22549;SDS011;11441;57.164;-2.120;2023-03-21T07:57:32;6.85;;;1.52;;
22549;SDS011;11441;57.164;-2.120;2023-03-21T07:59:59;3.17;;;1.63;;
22549;SDS011;11441;57.164;-2.120;2023-03-21T08:02:26;3.22;;;1.98;;
22549;SDS011;11441;57.164;-2.120;2023-03-21T08:04:53;4.60;;;2.17;;
22549;SDS011;11441;57.164;-2.120;2023-03-21T08:07:20;5.00;;;2.30;;
22549;SDS011;11441;57.164;-2.120;2023-03-21T08:09:47;2.78;;;1.25;;
22549;SDS011;11441;57.164;-2.120;2023-03-21T08:12:13;1.65;;;1.33;;
22549;SDS011;11441;57.164;-2.120;2023-03-21T08:14:40;1.27;;;1.17;;
22549;SDS011;11441;57.164;-2.120;2023-03-21T08:17:07;4.32;;;1.17;;
22549;SDS011;11441;57.164;-2.120;2023-03-21T08:19:34;3.58;;;1.40;;
22549;SDS011;11441;57.164;-2.120;2023-03-21T08:24:48;3.20;;;2.03;;
22549;SDS011;11441;57.164;-2.120;2023-03-21T08:27:15;2.67;;;1.30;;
22549;SDS011;11441;57.164;-2.120;2023-03-21T08:29:42;3.95;;;1.33;;
22549;SDS011;11441;57.164;-2.120;2023-03-21T08:32:08;2.35;;;1.40;;
22549;SDS011;11441;57.164;-2.120;2023-03-21T08:34:35;1.30;;;0.88;;
22549;SDS011;11441;57.164;-2.120;2023-03-21T08:37:02;3.85;;;1.40;;
22549;SDS011;11441;57.164;-2.120;2023-03-21T08:39:29;1.80;;;0.50;;
22549;SDS011;11441;57.164;-2.120;2023-03-21T08:41:56;2.45;;;0.90;;
22549;SDS011;11441;57.164;-2.120;2023-03-21T08:44:41;1.15;;;0.57;;
22549;SDS011;11441;57.164;-2.120;2023-03-21T08:47:07;1.30;;;0.50;;
22549;SDS011;11441;57.164;-2.120;2023-03-21T08:49:34;1.90;;;0.52;;
22549;SDS011;11441;57.164;-2.120;2023-03-21T08:52:02;1.15;;;0.47;;
22549;SDS011;11441;57.164;-2.120;2023-03-21T08:54:29;3.70;;;0.50;;
22549;SDS011;11441;57.164;-2.120;2023-03-21T08:56:56;5.10;;;0.73;;
22549;SDS011;11441;57.164;-2.120;2023-03-21T08:59:23;2.65;;;0.63;;
22549;SDS011;11441;57.164;-2.120;2023-03-21T09:01:49;2.70;;;0.60;;
22549;SDS011;11441;57.164;-2.120;2023-03-21T09:04:16;1.05;;;0.40;;
22549;SDS011;11441;57.164;-2.120;2023-03-21T09:06:44;4.53;;;0.85;;
22549;SDS011;11441;57.164;-2.120;2023-03-21T09:09:14;1.23;;;0.38;;
22549;SDS011;11441;57.164;-2.120;2023-03-21T09:11:41;1.83;;;0.68;;
22549;SDS011;11441;57.164;-2.120;2023-03-21T09:14:08;4.18;;;0.63;;
22549;SDS011;11441;57.164;-2.120;2023-03-21T09:16:37;2.30;;;1.20;;
22549;SDS011;11441;57.164;-2.120;2023-03-21T09:19:04;1.92;;;0.50;;
22549;SDS011;11441;57.164;-2.120;2023-03-21T09:21:34;1.13;;;0.40;;
22549;SDS011;11441;57.164;-2.120;2023-03-21T09:24:01;1.48;;;0.55;;
22549;SDS011;11441;57.164;-2.120;2023-03-21T09:26:46;1.40;;;0.40;;
22549;SDS011;11441;57.164;-2.120;2023-03-21T09:29:16;2.42;;;0.43;;
22549;SDS011;11441;57.164;-2.120;2023-03-21T09:31:48;0.68;;;0.40;;
22549;SDS011;11441;57.164;-2.120;2023-03-21T09:34:15;1.38;;;0.30;;
22549;SDS011;11441;57.164;-2.120;2023-03-21T09:36:42;0.52;;;0.38;;
22549;SDS011;11441;57.164;-2.120;2023-03-21T09:39:13;0.20;;;0.20;;
22549;SDS011;11441;57.164;-2.120;2023-03-21T09:41:53;0.43;;;0.20;;
22549;SDS011;11441;57.164;-2.120;2023-03-21T09:47:41;3.90;;;0.20;;
22549;SDS011;11441;57.164;-2.120;2023-03-21T09:52:56;0.90;;;0.50;;
22549;SDS011;11441;57.164;-2.120;2023-03-21T09:55:30;0.82;;;0.28;;
22549;SDS011;11441;57.164;-2.120;2023-03-21T10:00:37;0.30;;;0.30;;
22549;SDS011;11441;57.164;-2.120;2023-03-21T10:03:16;0.17;;;0.17;;
22549;SDS011;11441;57.164;-2.120;2023-03-21T10:05:53;0.77;;;0.40;;
22549;SDS011;11441;57.164;-2.120;2023-03-21T10:08:25;0.75;;;0.40;;
22549;SDS011;11441;57.164;-2.120;2023-03-21T10:11:24;0.38;;;0.38;;
22549;SDS011;11441;57.164;-2.120;2023-03-21T10:16:30;0.30;;;0.22;;
22549;SDS011;11441;57.164;-2.120;2023-03-21T10:19:02;0.15;;;0.15;;
22549;SDS011;11441;57.164;-2.120;2023-03-21T10:21:36;1.65;;;0.20;;
22549;SDS011;11441;57.164;-2.120;2023-03-21T10:24:25;0.30;;;0.20;;
22549;SDS011;11441;57.164;-2.120;2023-03-21T10:26:53;1.20;;;0.28;;
22549;SDS011;11441;57.164;-2.120;2023-03-21T10:29:23;0.77;;;0.20;;
22549;SDS011;11441;57.164;-2.120;2023-03-21T10:31:54;0.10;;;0.10;;
22549;SDS011;11441;57.164;-2.120;2023-03-21T10:36:59;0.38;;;0.20;;
22549;SDS011;11441;57.164;-2.120;2023-03-21T10:39:36;0.38;;;0.13;;
22549;SDS011;11441;57.164;-2.120;2023-03-21T10:42:05;0.25;;;0.25;;
22549;SDS011;11441;57.164;-2.120;2023-03-21T10:44:40;0.10;;;0.10;;
22549;SDS011;11441;57.164;-2.120;2023-03-21T10:47:18;0.17;;;0.10;;
22549;SDS011;11441;57.164;-2.120;2023-03-21T10:50:13;0.73;;;0.30;;
22549;SDS011;11441;57.164;-2.120;2023-03-21T10:52:45;2.40;;;0.10;;
22549;SDS011;11441;57.164;-2.120;2023-03-21T10:55:51;1.55;;;0.38;;
22549;SDS011;11441;57.164;-2.120;2023-03-21T10:58:24;0.15;;;0.10;;
22549;SDS011;11441;57.164;-2.120;2023-03-21T11:01:02;0.10;;;0.10;;
22549;SDS011;11441;57.164;-2.120;2023-03-21T11:03:36;2.78;;;0.25;;
22549;SDS011;11441;57.164;-2.120;2023-03-21T11:08:48;0.40;;;0.20;;
22549;SDS011;11441;57.164;-2.120;2023-03-21T11:11:21;0.32;;;0.17;;
22549;SDS011;11441;57.164;-2.120;2023-03-21T11:14:00;0.28;;;0.20;;
22549;SDS011;11441;57.164;-2.120;2023-03-21T11:16:37;2.00;;;0.30;;
22549;SDS011;11441;57.164;-2.120;2023-03-21T11:21:41;1.67;;;0.68;;
22549;SDS011;11441;57.164;-2.120;2023-03-21T11:24:13;1.00;;;0.68;;
22549;SDS011;11441;57.164;-2.120;2023-03-21T11:26:43;2.97;;;0.65;;
22549;SDS011;11441;57.164;-2.120;2023-03-21T11:29:32;6.13;;;1.35;;
22549;SDS011;11441;57.164;-2.120;2023-03-21T11:35:04;2.13;;;0.63;;
22549;SDS011;11441;57.164;-2.120;2023-03-21T11:37:43;4.40;;;0.80;;
22549;SDS011;11441;57.164;-2.120;2023-03-21T11:40:29;3.08;;;0.47;;
22549;SDS011;11441;57.164;-2.120;2023-03-21T11:45:56;2.97;;;0.68;;
22549;SDS011;11441;57.164;-2.120;2023-03-21T11:48:44;6.15;;;1.13;;
22549;SDS011;11441;57.164;-2.120;2023-03-21T11:54:11;4.15;;;0.68;;
22549;SDS011;11441;57.164;-2.120;2023-03-21T11:56:53;3.80;;;0.70;;
22549;SDS011;11441;57.164;-2.120;2023-03-21T11:59:45;1.92;;;0.43;;
22549;SDS011;11441;57.164;-2.120;2023-03-21T12:02:35;2.70;;;0.50;;
22549;SDS011;11441;57.164;-2.120;2023-03-21T12:05:57;0.88;;;0.30;;
22549;SDS011;11441;57.164;-2.120;2023-03-21T12:08:31;0.93;;;0.28;;
22549;SDS011;11441;57.164;-2.120;2023-03-21T12:22:52;1.85;;;0.60;;
22549;SDS011;11441;57.164;-2.120;2023-03-21T12:37:06;4.18;;;0.50;;
22549;SDS011;11441;57.164;-2.120;2023-03-21T12:39:53;0.77;;;0.40;;
22549;SDS011;11441;57.164;-2.120;2023-03-21T12:42:34;1.63;;;0.30;;
22549;SDS011;11441;57.164;-2.120;2023-03-21T12:45:11;5.18;;;0.30;;
22549;SDS011;11441;57.164;-2.120;2023-03-21T12:47:44;1.77;;;0.80;;
22549;SDS011;11441;57.164;-2.120;2023-03-21T12:50:18;0.85;;;0.22;;
22549;SDS011;11441;57.164;-2.120;2023-03-21T12:52:51;1.00;;;0.32;;
22549;SDS011;11441;57.164;-2.120;2023-03-21T12:55:27;0.35;;;0.20;;
22549;SDS011;11441;57.164;-2.120;2023-03-21T12:58:10;1.92;;;0.30;;
22549;SDS011;11441;57.164;-2.120;2023-03-21T13:06:06;0.73;;;0.30;;
22549;SDS011;11441;57.164;-2.120;2023-03-21T13:11:42;2.97;;;0.38;;
22549;SDS011;11441;57.164;-2.120;2023-03-21T13:14:27;2.10;;;0.30;;
22549;SDS011;11441;57.164;-2.120;2023-03-21T13:17:01;1.80;;;0.40;;
22549;SDS011;11441;57.164;-2.120;2023-03-21T13:19:38;2.92;;;0.30;;
22549;SDS011;11441;57.164;-2.120;2023-03-21T13:27:30;5.13;;;0.70;;
22549;SDS011;11441;57.164;-2.120;2023-03-21T13:32:47;2.78;;;0.30;;
22549;SDS011;11441;57.164;-2.120;2023-03-21T13:38:02;1.42;;;0.35;;
22549;SDS011;11441;57.164;-2.120;2023-03-21T13:40:48;2.60;;;0.40;;
22549;SDS011;11441;57.164;-2.120;2023-03-21T13:54:17;3.70;;;0.80;;
22549;SDS011;11441;57.164;-2.120;2023-03-21T14:00:12;3.58;;;0.63;;
22549;SDS011;11441;57.164;-2.120;2023-03-21T14:03:00;1.90;;;0.50;;
22549;SDS011;11441;57.164;-2.120;2023-03-21T14:05:33;6.05;;;0.80;;
22549;SDS011;11441;57.164;-2.120;2023-03-21T14:08:06;2.80;;;0.40;;
22549;SDS011;11441;57.164;-2.120;2023-03-21T14:10:44;3.33;;;0.57;;
22549;SDS011;11441;57.164;-2.120;2023-03-21T14:13:33;1.15;;;0.47;;
22549;SDS011;11441;57.164;-2.120;2023-03-21T14:16:11;1.75;;;0.30;;
22549;SDS011;11441;57.164;-2.120;2023-03-21T14:18:45;5.43;;;0.60;;
22549;SDS011;11441;57.164;-2.120;2023-03-21T14:21:22;4.25;;;0.68;;
22549;SDS011;11441;57.164;-2.120;2023-03-21T14:23:58;2.90;;;0.60;;
22549;SDS011;11441;57.164;-2.120;2023-03-21T14:26:39;4.10;;;0.68;;
22549;SDS011;11441;57.164;-2.120;2023-03-21T14:29:11;1.48;;;0.50;;
22549;SDS011;11441;57.164;-2.120;2023-03-21T14:31:52;2.38;;;0.28;;
22549;SDS011;11441;57.164;-2.120;2023-03-21T14:34:21;2.40;;;0.40;;
22549;SDS011;11441;57.164;-2.120;2023-03-21T14:36:49;4.88;;;0.65;;
22549;SDS011;11441;57.164;-2.120;2023-03-21T14:39:30;2.42;;;0.60;;
22549;SDS011;11441;57.164;-2.120;2023-03-21T14:42:06;5.03;;;0.55;;
22549;SDS011;11441;57.164;-2.120;2023-03-21T14:44:38;7.05;;;1.02;;
22549;SDS011;11441;57.164;-2.120;2023-03-21T14:47:22;2.97;;;0.60;;
22549;SDS011;11441;57.164;-2.120;2023-03-21T14:49:50;3.25;;;0.98;;
22549;SDS011;11441;57.164;-2.120;2023-03-21T14:52:31;5.63;;;0.90;;
22549;SDS011;11441;57.164;-2.120;2023-03-21T14:54:59;5.22;;;0.68;;
22549;SDS011;11441;57.164;-2.120;2023-03-21T14:57:29;4.43;;;0.50;;
22549;SDS011;11441;57.164;-2.120;2023-03-21T14:59:59;4.63;;;0.73;;
22549;SDS011;11441;57.164;-2.120;2023-03-21T15:02:36;3.55;;;0.60;;
22549;SDS011;11441;57.164;-2.120;2023-03-21T15:05:09;6.53;;;1.15;;
22549;SDS011;11441;57.164;-2.120;2023-03-21T15:07:50;4.07;;;1.30;;
22549;SDS011;11441;57.164;-2.120;2023-03-21T15:10:19;7.38;;;0.60;;
22549;SDS011;11441;57.164;-2.120;2023-03-21T15:13:29;3.17;;;0.60;;
22549;SDS011;11441;57.164;-2.120;2023-03-21T15:15:41;3.08;;;0.40;;
22549;SDS011;11441;57.164;-2.120;2023-03-21T15:18:10;3.97;;;0.50;;
22549;SDS011;11441;57.164;-2.120;2023-03-21T15:21:08;3.53;;;0.57;;
22549;SDS011;11441;57.164;-2.120;2023-03-21T15:23:41;2.03;;;0.50;;
22549;SDS011;11441;57.164;-2.120;2023-03-21T15:26:16;5.43;;;0.75;;
22549;SDS011;11441;57.164;-2.120;2023-03-21T15:28:46;4.15;;;0.45;;
22549;SDS011;11441;57.164;-2.120;2023-03-21T15:31:19;4.07;;;0.77;;
22549;SDS011;11441;57.164;-2.120;2023-03-21T15:33:50;1.73;;;0.50;;
22549;SDS011;11441;57.164;-2.120;2023-03-21T15:36:18;2.72;;;0.65;;
22549;SDS011;11441;57.164;-2.120;2023-03-21T15:38:48;1.92;;;0.82;;
22549;SDS011;11441;57.164;-2.120;2023-03-21T15:43:42;4.50;;;0.50;;
22549;SDS011;11441;57.164;-2.120;2023-03-21T15:46:17;4.88;;;0.73;;
22549;SDS011;11441;57.164;-2.120;2023-03-21T15:51:46;5.32;;;0.52;;
22549;SDS011;11441;57.164;-2.120;2023-03-21T15:54:23;1.17;;;0.20;;
22549;SDS011;11441;57.164;-2.120;2023-03-21T15:56:54;0.20;;;0.20;;
22549;SDS011;11441;57.164;-2.120;2023-03-21T15:59:23;1.95;;;0.20;;
22549;SDS011;11441;57.164;-2.120;2023-03-21T16:01:54;3.22;;;1.73;;
22549;SDS011;11441;57.164;-2.120;2023-03-21T16:04:21;1.33;;;0.30;;
22549;SDS011;11441;57.164;-2.120;2023-03-21T16:06:50;1.65;;;0.32;;
22549;SDS011;11441;57.164;-2.120;2023-03-21T16:09:22;0.93;;;0.22;;
22549;SDS011;11441;57.164;-2.120;2023-03-21T16:11:53;0.90;;;0.28;;
22549;SDS011;11441;57.164;-2.120;2023-03-21T16:14:22;2.08;;;0.30;;
22549;SDS011;11441;57.164;-2.120;2023-03-21T16:16:53;1.33;;;0.20;;
22549;SDS011;11441;57.164;-2.120;2023-03-21T16:19:20;1.08;;;0.45;;
22549;SDS011;11441;57.164;-2.120;2023-03-21T16:21:48;2.53;;;0.40;;
22549;SDS011;11441;57.164;-2.120;2023-03-21T16:24:15;0.95;;;0.30;;
22549;SDS011;11441;57.164;-2.120;2023-03-21T16:26:43;3.70;;;0.60;;
22549;SDS011;11441;57.164;-2.120;2023-03-21T16:29:13;1.40;;;0.40;;
22549;SDS011;11441;57.164;-2.120;2023-03-21T16:31:41;1.55;;;0.30;;
22549;SDS011;11441;57.164;-2.120;2023-03-21T16:34:08;1.67;;;0.47;;
22549;SDS011;11441;57.164;-2.120;2023-03-21T16:36:36;1.58;;;0.40;;
22549;SDS011;11441;57.164;-2.120;2023-03-21T16:39:21;2.28;;;0.45;;
22549;SDS011;11441;57.164;-2.120;2023-03-21T16:42:10;2.35;;;0.30;;
22549;SDS011;11441;57.164;-2.120;2023-03-21T16:44:38;2.58;;;0.50;;
22549;SDS011;11441;57.164;-2.120;2023-03-21T16:47:15;4.32;;;0.73;;
22549;SDS011;11441;57.164;-2.120;2023-03-21T16:49:45;1.60;;;0.60;;
22549;SDS011;11441;57.164;-2.120;2023-03-21T16:52:12;3.30;;;0.70;;
22549;SDS011;11441;57.164;-2.120;2023-03-21T16:54:40;6.30;;;0.75;;
22549;SDS011;11441;57.164;-2.120;2023-03-21T16:57:13;3.70;;;0.60;;
22549;SDS011;11441;57.164;-2.120;2023-03-21T16:59:47;4.65;;;0.85;;
22549;SDS011;11441;57.164;-2.120;2023-03-21T17:02:14;2.95;;;0.70;;
22549;SDS011;11441;57.164;-2.120;2023-03-21T17:04:44;5.82;;;0.82;;
22549;SDS011;11441;57.164;-2.120;2023-03-21T17:09:57;2.05;;;0.80;;
22549;SDS011;11441;57.164;-2.120;2023-03-21T17:12:24;4.68;;;0.82;;
22549;SDS011;11441;57.164;-2.120;2023-03-21T17:14:50;2.88;;;0.55;;
22549;SDS011;11441;57.164;-2.120;2023-03-21T17:17:17;2.70;;;0.77;;
22549;SDS011;11441;57.164;-2.120;2023-03-21T17:19:44;2.65;;;0.63;;
22549;SDS011;11441;57.164;-2.120;2023-03-21T17:22:12;4.60;;;0.93;;
22549;SDS011;11441;57.164;-2.120;2023-03-21T17:24:56;3.15;;;0.68;;
22549;SDS011;11441;57.164;-2.120;2023-03-21T17:27:23;4.72;;;0.80;;
22549;SDS011;11441;57.164;-2.120;2023-03-21T17:29:51;3.30;;;0.90;;
22549;SDS011;11441;57.164;-2.120;2023-03-21T17:32:18;8.15;;;1.27;;
22549;SDS011;11441;57.164;-2.120;2023-03-21T17:34:44;4.22;;;1.00;;
22549;SDS011;11441;57.164;-2.120;2023-03-21T17:37:11;2.65;;;0.65;;
22549;SDS011;11441;57.164;-2.120;2023-03-21T17:39:38;2.58;;;0.90;;
22549;SDS011;11441;57.164;-2.120;2023-03-21T17:42:05;4.20;;;1.02;;
22549;SDS011;11441;57.164;-2.120;2023-03-21T17:44:41;3.28;;;0.75;;
22549;SDS011;11441;57.164;-2.120;2023-03-21T17:47:09;2.90;;;1.08;;
22549;SDS011;11441;57.164;-2.120;2023-03-21T17:49:36;3.40;;;0.88;;